EPKT/KTW METAR and TAF weather

Enter ICAO airport designator
Station Type Date Time Source
EPKT METAR 2019/10/21 04:30 UTC NOAA

EPKT 210430Z 06003KT 7000 0900N BCFG NSC 08/07 Q1016


Station Type Date Time Source
EPKT Decoded METAR 2019/10/21 04:30 UTC NOAA

Katowice, Poland (EPKT) 50-14N 019-02E 284M
Oct 21, 2019 - 12:30 AM EDT / 2019.10.21 0430 UTC
Wind: from the ENE (060 degrees) at 3 MPH (3 KT):0
Visibility: 4 mile(s):0
Weather: patches of fog
Temperature: 46 F (8 C)
Dew Point: 44 F (7 C)
Relative Humidity: 93%
Pressure (altimeter): 30.00 in. Hg (1016 hPa)
ob: EPKT 210430Z 06003KT 7000 0900N BCFG NSC 08/07 Q1016
cycle: 4

Station Type Date Time Source
EPKT TAF 2019/10/20 18:33 UTC NOAA

TAF EPKT 201730Z 2018/2118 19007KT CAVOK

Example: see airport list